Russellville, OH (45168)

10:05 AM EDT on August 01, 2015 (GMT -0400)
APRSWXNET | | Change Station
CLOSE
Current Station
Personal Weather Station
Location: Lake Waynoka, OH
Elevation: 1043 ft
Nearby Weather Stations

Elev 1043 ft 38.92 °N, 83.78 °W | Updated 22 minutes ago

Clear
Clear
74 °F
Feels Like 76 °F
N
1
Wind Variable Wind from West
Gusts 4.0 mph

Today
High -- | Low -- °F
--% Chance of Precip.
Yesterday
High -- | Low -- °F
Precip. -- in
6:35 AM 8:46 PM
Full, 98% visible
Pressure 30.02 in
Visibility 10.0 miles
Clouds Clear
Heat Index 76 °F
Dew Point 64 °F
Humidity 70%
Rainfall in
Snow Depth Not available.
UV 4 out of 12
Pollen 7.10 out of 12
Air Quality Not available.
Flu Activity Not available.
METAR KI69 011345Z AUTO 36000KT 10SM CLR 24/16 A3002 RMK AO1

More Conditions Fewer Conditions

Pressure 30.02 in
Visibility 10.0 miles
Clouds Clear
Heat Index 76 °F
Dew Point 64 °F
Humidity 70%
Rainfall in
Snow Depth Not available.
UV 4 out of 12
Pollen 7.10 out of 12
Air Quality Not available.
Flu Activity Not available.
METAR KI69 011345Z AUTO 36000KT 10SM CLR 24/16 A3002 RMK AO1

More Conditions Fewer Conditions

10-Day Weather Forecast

×

Almanac

Astronomy

Aug. 01, 2015 Rise Set
Actual Time
Civil Twilight
Nautical Twilight
Astronomical Twilight
Moon
Length of Visible Light
Length of Day
Tomorrow will be .
, % of the Moon is Illuminated

Today's Extremes

State Highs State Lows

Community

WunderPhotos

Upload Photos

1,842,951 photos uploaded!

WunderBlogs® & News

Nearby

Air Quality

  Air Quality AQ Index Pollutant
Not available.

Snow Depth

Station Depth Elevation

Earthquake Activity

City Distance Mag. Time & Date
Minimum magnitude displayed is 2.5.

Coastal Water Temperatures

Place Temperature

Stations

Nearby Weather Stations

Station Location Temp. Windchill Dew Point Humidity Wind Precip. Elev Updated Type